»·PEaware :: WAT1409 KBFL-KLAS

WAT1409 :: KBFL-KLAS

FLIGHT INFORMATION

Flight Status: Arrived
Operator:
Walker Air Transport
More flights by this operator :: More flights under this callsign
Pilot: Matthew T. (18767)
Aircraft: BEECH AIRCRAFT PREMIER
(PRM1)
More flights by this aircraft type
Origin: KBFL Meadows
United States
Destination: KLAS Harry Reid Intl
United States
More flights between these airports :: More routes between these airports
Route: MEADO5 PMD HELDE NNAVY MISEN RNDRZ2
File this flight plan on PilotEdge
Remarks: RMK / SIMBRIEF
Altitude:
(Current/Filed)
17,000ft
Speed:
(Current/Filed)
395kts
Departed: 19-Nov-22 08:13 AM
Arrived: 19-Nov-22 09:11 AM
Distance/Time
Traveled:
194nm/0:58
Distance/Time
To Go:
Arrived

Flight Plot

Page will automatically refresh every two minutes.

Flight plan parsing failed; only flown route is shown


Map Options




Map Legend


Flown Route
Filed Route
Departure Airport
Arrival Airport
Navaid (VOR, NDB)
Fix

Horizontal Profiles

Position Reports

Time Latitude Longitude Heading Altitude Ground
Speed
19-Nov-22 07:58 35.430664 -119.047223 226 512ft 0kts
19-Nov-22 07:59 35.430664 -119.047223 226 512ft 0kts
19-Nov-22 08:00 35.430664 -119.047223 226 512ft 0kts
19-Nov-22 08:01 35.430664 -119.047223 226 512ft 0kts
19-Nov-22 08:02 35.430664 -119.047223 226 512ft 0kts
19-Nov-22 08:03 35.430664 -119.047223 226 512ft 0kts
19-Nov-22 08:04 35.430664 -119.047223 226 512ft 0kts
19-Nov-22 08:05 35.430664 -119.047223 226 512ft 0kts
19-Nov-22 08:06 35.430664 -119.047223 226 512ft 0kts
19-Nov-22 08:07 35.430664 -119.047223 226 512ft 0kts
19-Nov-22 08:08 35.430664 -119.047223 226 512ft 0kts
19-Nov-22 08:09 35.429117 -119.048272 137 512ft 7kts
19-Nov-22 08:10 35.426981 -119.045635 135 512ft 19kts
19-Nov-22 08:11 35.425785 -119.045051 219 512ft 14kts
19-Nov-22 08:12 35.444860 -119.069252 316 1210ft 189kts
19-Nov-22 08:13 35.482350 -119.115887 314 4717ft 203kts
19-Nov-22 08:14 35.511090 -119.175108 262 7722ft 225kts
19-Nov-22 08:15 35.467883 -119.196332 147 10458ft 223kts
19-Nov-22 08:16 35.417327 -119.152862 143 13490ft 231kts
19-Nov-22 08:17 35.390926 -119.090103 119 16446ft 222kts
19-Nov-22 08:18 35.339047 -119.030233 129 16757ft 312kts
19-Nov-22 08:19 35.279254 -118.947334 132 16852ft 334kts
19-Nov-22 08:20 35.220334 -118.866522 130 17001ft 345kts
19-Nov-22 08:21 35.155833 -118.777702 129 17007ft 356kts
19-Nov-22 08:22 35.089362 -118.686450 129 16865ft 364kts
19-Nov-22 08:23 35.040847 -118.619913 129 16942ft 347kts
19-Nov-22 08:24 34.979115 -118.535036 128 17050ft 322kts
19-Nov-22 08:25 34.925209 -118.461893 131 17028ft 311kts
19-Nov-22 08:26 34.866601 -118.386036 134 16933ft 305kts
19-Nov-22 08:27 34.807146 -118.314145 134 17026ft 296kts
19-Nov-22 08:28 34.756111 -118.236614 125 16844ft 299kts
19-Nov-22 08:29 34.703403 -118.160758 131 17126ft 287kts
19-Nov-22 08:30 34.648947 -118.087772 133 17016ft 290kts
19-Nov-22 08:31 34.638995 -117.995348 83 17016ft 299kts
19-Nov-22 08:32 34.649895 -117.895035 84 17002ft 299kts
19-Nov-22 08:33 34.660905 -117.794714 86 16997ft 299kts
19-Nov-22 08:34 34.671428 -117.695206 86 17059ft 298kts
19-Nov-22 08:35 34.682474 -117.595733 85 17132ft 296kts
19-Nov-22 08:36 34.692642 -117.495357 85 17088ft 298kts
19-Nov-22 08:37 34.704163 -117.395668 82 17116ft 299kts
19-Nov-22 08:38 34.732165 -117.299472 72 17090ft 304kts
19-Nov-22 08:39 34.763035 -117.203324 73 17007ft 306kts
19-Nov-22 08:40 34.794498 -117.108367 72 17045ft 306kts
19-Nov-22 08:41 34.826485 -117.012155 70 17021ft 307kts
19-Nov-22 08:42 34.858154 -116.915446 72 17065ft 307kts
19-Nov-22 08:43 34.890298 -116.818227 70 17075ft 310kts
19-Nov-22 08:44 34.924099 -116.720920 61 17037ft 314kts
19-Nov-22 08:45 34.973170 -116.632948 56 17037ft 316kts
19-Nov-22 08:46 35.022687 -116.545182 57 17059ft 315kts
19-Nov-22 08:47 35.073802 -116.458307 56 16938ft 317kts
19-Nov-22 08:48 35.119552 -116.381706 47 16999ft 315kts
19-Nov-22 08:49 35.179217 -116.303410 46 17006ft 313kts
19-Nov-22 08:50 35.239850 -116.226034 51 16820ft 318kts
19-Nov-22 08:51 35.297839 -116.145712 50 16802ft 313kts
19-Nov-22 08:52 35.355061 -116.067277 49 15887ft 305kts
19-Nov-22 08:53 35.411053 -115.989888 49 14316ft 300kts
19-Nov-22 08:54 35.465257 -115.915700 50 13040ft 285kts
19-Nov-22 08:55 35.517946 -115.842305 49 12940ft 286kts
19-Nov-22 08:56 35.572416 -115.767563 49 12979ft 304kts
19-Nov-22 08:57 35.616680 -115.688858 60 11661ft 263kts
19-Nov-22 08:58 35.654313 -115.610333 58 10032ft 270kts
19-Nov-22 08:59 35.692128 -115.532420 59 9933ft 263kts
19-Nov-22 09:00 35.727513 -115.459889 59 8622ft 242kts
19-Nov-22 09:01 35.765774 -115.393420 42 8058ft 227kts
19-Nov-22 09:02 35.814916 -115.341911 42 7971ft 231kts
19-Nov-22 09:03 35.865371 -115.293006 27 7601ft 236kts
19-Nov-22 09:04 35.924619 -115.259447 26 5401ft 212kts
19-Nov-22 09:05 35.969450 -115.233033 28 4016ft 154kts
19-Nov-22 09:06 36.000049 -115.214599 27 3365ft 122kts
19-Nov-22 09:07 36.034472 -115.194398 25 3071ft 131kts
19-Nov-22 09:08 36.066591 -115.175331 23 2497ft 120kts
19-Nov-22 09:09 36.089612 -115.162271 29 2188ft 53kts
19-Nov-22 09:10 36.094195 -115.161079 301 2188ft 5kts
19-Nov-22 09:11 36.093076 -115.163147 258 2188ft 9kts

Navigation Log

Ident Type
Flight plan parsing failed, navigation log unavailable